createdAt,value
2022-08-12T00:00:20.664Z,3.36
2022-08-12T00:02:02.219Z,3.17
2022-08-12T00:03:37.035Z,3.22
2022-08-12T00:05:08.781Z,3.51
2022-08-12T00:06:41.044Z,3.76
2022-08-12T00:08:12.590Z,3.56
2022-08-12T00:09:49.446Z,3.38
2022-08-12T00:11:21.330Z,3.53
2022-08-12T00:12:57.904Z,3.47
2022-08-12T00:14:29.505Z,3.28
2022-08-12T00:16:01.384Z,3.27
2022-08-12T00:17:34.061Z,3.07
2022-08-12T00:19:05.608Z,3.21
2022-08-12T00:20:42.226Z,3.47
2022-08-12T00:22:13.872Z,3.69
2022-08-12T00:23:45.725Z,3.22
2022-08-12T00:25:18.470Z,3.28
2022-08-12T00:26:55.476Z,3.38
2022-08-12T00:28:27.056Z,3.27
2022-08-12T00:29:58.905Z,3.33
2022-08-12T00:31:30.806Z,3.32
2022-08-12T00:33:03.314Z,3.19
2022-08-12T00:34:35.667Z,3.25
2022-08-12T00:36:15.760Z,3.47
2022-08-12T00:38:07.977Z,3.30
2022-08-12T00:39:39.633Z,3.36
2022-08-12T00:41:11.578Z,3.48
2022-08-12T00:42:43.620Z,3.21
2022-08-12T00:44:15.279Z,3.41
2022-08-12T00:45:47.051Z,3.06
2022-08-12T00:47:25.159Z,3.01
2022-08-12T00:48:57.420Z,3.15
2022-08-12T00:50:34.547Z,3.36
2022-08-12T00:52:06.653Z,3.20
2022-08-12T00:53:38.143Z,3.16
2022-08-12T00:55:10.294Z,3.28
2022-08-12T00:56:42.176Z,3.20
2022-08-12T00:58:13.860Z,3.08
2022-08-12T00:59:45.429Z,3.24
2022-08-12T01:01:17.293Z,3.16
2022-08-12T01:02:49.276Z,3.03
2022-08-12T01:04:26.046Z,3.20
2022-08-12T01:06:00.695Z,3.03
2022-08-12T01:07:32.603Z,3.14
2022-08-12T01:09:04.382Z,3.15
2022-08-12T01:10:36.422Z,3.22
2022-08-12T01:12:13.051Z,3.47
2022-08-12T01:13:44.771Z,3.36
2022-08-12T01:15:17.163Z,3.40
2022-08-12T01:16:49.278Z,3.37
2022-08-12T01:18:22.757Z,3.36
2022-08-12T01:19:54.517Z,3.34
2022-08-12T01:21:26.616Z,3.21
2022-08-12T01:23:03.230Z,3.04
2022-08-12T01:24:34.924Z,3.25
2022-08-12T01:26:06.463Z,3.17
2022-08-12T01:27:43.164Z,3.29
2022-08-12T01:29:14.985Z,3.39
2022-08-12T01:30:52.020Z,3.19
2022-08-12T01:32:23.774Z,3.55
2022-08-12T01:33:56.089Z,3.41
2022-08-12T01:35:27.740Z,3.60
2022-08-12T01:36:59.608Z,3.93
2022-08-12T01:38:31.234Z,4.05
2022-08-12T01:40:35.436Z,4.17
2022-08-12T01:42:09.324Z,4.03
2022-08-12T01:43:41.228Z,4.11
2022-08-12T01:45:12.892Z,4.22
2022-08-12T01:46:44.800Z,4.32
2022-08-12T01:48:16.592Z,4.44
2022-08-12T01:49:48.681Z,4.29
2022-08-12T01:52:04.523Z,4.42
2022-08-12T01:53:53.761Z,4.63
2022-08-12T01:55:25.523Z,4.35
2022-08-12T01:56:57.159Z,4.26
2022-08-12T01:58:28.939Z,4.57
2022-08-12T02:00:00.992Z,4.15
2022-08-12T02:01:32.832Z,4.31
2022-08-12T02:03:04.661Z,4.32
2022-08-12T02:04:36.485Z,4.36
2022-08-12T02:06:08.390Z,4.80
2022-08-12T02:07:40.292Z,4.59
2022-08-12T02:09:12.415Z,4.37
2022-08-12T02:10:51.214Z,4.66
2022-08-12T02:12:28.609Z,4.18
2022-08-12T02:14:08.057Z,4.09
2022-08-12T02:15:39.707Z,4.35
2022-08-12T02:17:11.596Z,4.42
2022-08-12T02:18:49.167Z,4.10
2022-08-12T02:20:20.923Z,4.01
2022-08-12T02:21:52.549Z,3.86
2022-08-12T02:23:24.326Z,4.12
2022-08-12T02:24:56.432Z,4.20
2022-08-12T02:26:28.333Z,4.03
2022-08-12T02:28:00.332Z,4.20
2022-08-12T02:29:37.878Z,4.10
2022-08-12T02:31:09.558Z,4.06
2022-08-12T02:32:41.549Z,4.17
2022-08-12T02:34:13.505Z,4.26
2022-08-12T02:35:45.451Z,3.77
2022-08-12T02:37:17.468Z,3.98
2022-08-12T02:38:50.668Z,4.05
2022-08-12T02:40:26.304Z,4.20
2022-08-12T02:41:58.419Z,4.21
2022-08-12T02:43:30.663Z,4.33
2022-08-12T02:45:02.689Z,4.16
2022-08-12T02:46:34.413Z,4.14
2022-08-12T02:48:06.189Z,4.37
2022-08-12T02:49:38.268Z,3.85
2022-08-12T02:51:10.173Z,4.04
2022-08-12T02:52:42.275Z,3.98
2022-08-12T02:54:13.891Z,4.09
2022-08-12T02:55:45.680Z,4.01
2022-08-12T02:57:17.682Z,3.96
2022-08-12T02:58:49.595Z,3.97
2022-08-12T03:00:21.603Z,3.93
2022-08-12T03:01:53.593Z,4.28
2022-08-12T03:03:25.373Z,4.02
2022-08-12T03:04:57.212Z,3.94
2022-08-12T03:06:29.219Z,4.13
2022-08-12T03:08:01.417Z,4.09
2022-08-12T03:09:40.720Z,4.23
2022-08-12T03:11:41.664Z,4.09
2022-08-12T03:13:14.563Z,3.80
2022-08-12T03:14:46.341Z,4.06
2022-08-12T03:16:18.490Z,3.85
2022-08-12T03:18:25.669Z,3.87
2022-08-12T03:20:09.378Z,3.54
2022-08-12T03:21:55.443Z,3.75
2022-08-12T03:23:46.464Z,3.94
2022-08-12T03:25:18.439Z,3.93
2022-08-12T03:26:50.221Z,3.81
2022-08-12T03:28:24.062Z,3.70
2022-08-12T03:29:55.806Z,3.93
2022-08-12T03:31:27.296Z,3.91
2022-08-12T03:32:59.144Z,3.94
2022-08-12T03:34:30.910Z,3.93
2022-08-12T03:36:02.567Z,3.94
2022-08-12T03:37:34.534Z,3.66
2022-08-12T03:39:06.083Z,4.06
2022-08-12T03:40:37.963Z,3.94
2022-08-12T03:42:09.676Z,3.70
2022-08-12T03:43:41.575Z,3.69
2022-08-12T03:45:13.509Z,4.22
2022-08-12T03:46:45.400Z,4.38
2022-08-12T03:48:19.044Z,4.06
2022-08-12T03:49:51.812Z,4.42
2022-08-12T03:51:23.458Z,4.05
2022-08-12T03:52:55.284Z,4.17
2022-08-12T03:54:27.347Z,4.13
2022-08-12T03:55:59.432Z,4.00
2022-08-12T03:57:31.351Z,4.49
2022-08-12T03:59:03.571Z,4.13
2022-08-12T04:00:35.539Z,4.33
2022-08-12T04:02:07.759Z,4.32
2022-08-12T04:03:39.645Z,4.43
2022-08-12T04:05:11.319Z,4.00
2022-08-12T04:06:44.480Z,4.11
2022-08-12T04:08:16.468Z,3.99
2022-08-12T04:09:48.418Z,4.22
2022-08-12T04:11:20.295Z,4.14
2022-08-12T04:12:52.336Z,3.96
2022-08-12T04:14:24.114Z,3.89
2022-08-12T04:15:55.970Z,3.89
2022-08-12T04:17:27.830Z,3.88
2022-08-12T04:19:04.701Z,4.17
2022-08-12T04:20:36.419Z,4.30
2022-08-12T04:22:08.410Z,4.21
2022-08-12T04:23:41.505Z,4.05
2022-08-12T04:25:15.666Z,4.33
2022-08-12T04:26:47.371Z,4.12
2022-08-12T04:28:20.266Z,4.04
2022-08-12T04:30:16.397Z,4.18
2022-08-12T04:32:03.695Z,4.17
2022-08-12T04:33:35.466Z,4.16
2022-08-12T04:35:07.163Z,4.12
2022-08-12T04:36:39.155Z,4.01
2022-08-12T04:38:10.934Z,3.81
2022-08-12T04:39:43.219Z,4.07
2022-08-12T04:41:15.256Z,4.24
2022-08-12T04:42:46.935Z,4.70
2022-08-12T04:44:18.699Z,4.28
2022-08-12T04:45:50.743Z,4.13
2022-08-12T04:47:22.698Z,4.00
2022-08-12T04:48:54.621Z,4.38
2022-08-12T04:50:34.855Z,4.81
2022-08-12T04:52:08.254Z,4.21
2022-08-12T04:53:40.470Z,4.30
2022-08-12T04:55:12.271Z,4.30
2022-08-12T04:56:44.497Z,4.26
2022-08-12T04:58:38.407Z,4.20
2022-08-12T05:00:10.455Z,4.57
2022-08-12T05:01:42.327Z,4.49
2022-08-12T05:03:13.972Z,4.60
2022-08-12T05:04:45.729Z,4.42
2022-08-12T05:06:26.847Z,4.46
2022-08-12T05:07:58.831Z,4.49
2022-08-12T05:10:02.320Z,4.36
2022-08-12T05:11:37.336Z,4.57
2022-08-12T05:13:25.733Z,4.73
2022-08-12T05:14:57.468Z,4.79
2022-08-12T05:16:36.126Z,4.56
2022-08-12T05:18:19.257Z,4.84
2022-08-12T05:19:51.751Z,4.97
2022-08-12T05:21:24.340Z,4.64
2022-08-12T05:22:58.020Z,4.65
2022-08-12T05:24:31.693Z,4.59
2022-08-12T05:26:08.522Z,4.39
2022-08-12T05:27:40.255Z,4.41
2022-08-12T05:30:06.206Z,4.60
2022-08-12T05:31:48.070Z,4.45
2022-08-12T05:33:20.170Z,4.27
2022-08-12T05:34:51.953Z,4.22
2022-08-12T05:36:23.689Z,4.25
2022-08-12T05:37:55.229Z,4.49
2022-08-12T05:39:27.125Z,4.61
2022-08-12T05:40:59.150Z,5.03
2022-08-12T05:42:34.510Z,4.65
2022-08-12T05:44:06.542Z,4.52
2022-08-12T05:45:44.263Z,4.59
2022-08-12T05:47:17.068Z,4.33
2022-08-12T05:48:50.361Z,4.40
2022-08-12T05:50:22.394Z,4.23
2022-08-12T05:51:54.017Z,3.93
2022-08-12T05:53:25.636Z,3.97
2022-08-12T05:54:58.013Z,4.23
2022-08-12T05:56:30.005Z,4.03
2022-08-12T05:58:01.972Z,4.29
2022-08-12T05:59:33.847Z,4.09
2022-08-12T06:02:09.644Z,4.24
2022-08-12T06:03:44.767Z,4.21
2022-08-12T06:05:16.952Z,4.36
2022-08-12T06:06:48.622Z,4.62
2022-08-12T06:08:20.564Z,4.69
2022-08-12T06:09:52.414Z,4.87
2022-08-12T06:11:24.448Z,4.72
2022-08-12T06:12:56.694Z,4.83
2022-08-12T06:14:28.817Z,4.93
2022-08-12T06:16:03.002Z,4.61
2022-08-12T06:17:35.081Z,4.88
2022-08-12T06:19:07.661Z,4.70
2022-08-12T06:20:40.097Z,4.64
2022-08-12T06:22:13.861Z,4.56
2022-08-12T06:23:46.251Z,4.72
2022-08-12T06:25:22.045Z,4.63
2022-08-12T06:26:59.213Z,4.54
2022-08-12T06:28:31.511Z,4.38
2022-08-12T06:30:08.974Z,4.71
2022-08-12T06:31:43.728Z,4.72
2022-08-12T06:33:22.640Z,4.79
2022-08-12T06:35:25.073Z,4.94
2022-08-12T06:36:59.696Z,5.04
2022-08-12T06:38:32.855Z,4.93
2022-08-12T06:40:05.094Z,4.93
2022-08-12T06:41:37.176Z,4.58
2022-08-12T06:43:08.929Z,4.69
2022-08-12T06:44:46.133Z,4.23
2022-08-12T06:46:18.331Z,4.17
2022-08-12T06:47:50.722Z,4.25
2022-08-12T06:49:27.937Z,4.07
2022-08-12T06:50:59.773Z,4.26
2022-08-12T06:52:31.529Z,4.07
2022-08-12T06:54:03.727Z,4.56
2022-08-12T06:55:35.885Z,4.41
2022-08-12T06:58:08.146Z,4.37
2022-08-12T06:59:46.974Z,4.25
2022-08-12T07:01:19.126Z,4.15
2022-08-12T07:02:51.152Z,4.44
2022-08-12T07:04:36.939Z,4.60
2022-08-12T07:06:10.032Z,4.35
2022-08-12T07:07:41.808Z,4.43
2022-08-12T07:09:55.741Z,4.10
2022-08-12T07:11:40.076Z,4.44
2022-08-12T07:13:11.629Z,4.50
2022-08-12T07:14:48.401Z,4.32
2022-08-12T07:16:21.178Z,4.11
2022-08-12T07:17:52.889Z,4.34
2022-08-12T07:19:24.904Z,4.30
2022-08-12T07:21:12.668Z,4.69
2022-08-12T07:22:44.539Z,4.36
2022-08-12T07:24:16.262Z,4.38
2022-08-12T07:25:48.372Z,4.14
2022-08-12T07:27:20.655Z,3.80
2022-08-12T07:28:53.012Z,3.76
2022-08-12T07:30:24.956Z,4.17
2022-08-12T07:31:56.498Z,4.18
2022-08-12T07:33:28.485Z,4.36
2022-08-12T07:35:00.799Z,3.99
2022-08-12T07:36:32.811Z,4.12
2022-08-12T07:38:09.524Z,4.02
2022-08-12T07:39:50.884Z,3.84
2022-08-12T07:41:33.071Z,3.99
2022-08-12T07:43:04.771Z,3.80
2022-08-12T07:44:36.677Z,3.74
2022-08-12T07:46:08.502Z,4.02
2022-08-12T07:47:40.473Z,3.72
2022-08-12T07:49:12.363Z,3.85
2022-08-12T07:50:44.444Z,3.95
2022-08-12T07:52:16.235Z,3.67
2022-08-12T07:54:00.223Z,3.30
2022-08-12T07:55:32.857Z,3.18
2022-08-12T07:57:09.837Z,3.20
2022-08-12T07:58:45.254Z,3.24
2022-08-12T08:00:19.489Z,3.42
2022-08-12T08:01:51.563Z,3.02
2022-08-12T08:03:28.460Z,3.10
2022-08-12T08:05:05.258Z,3.13
2022-08-12T08:06:42.074Z,2.87
2022-08-12T08:08:13.931Z,2.88
2022-08-12T08:09:45.889Z,2.86
2022-08-12T08:11:17.709Z,2.32
2022-08-12T08:12:49.627Z,2.56
2022-08-12T08:14:21.481Z,2.24
2022-08-12T08:16:02.884Z,2.50
2022-08-12T08:17:35.571Z,2.52
2022-08-12T08:19:07.227Z,2.46
2022-08-12T08:20:38.958Z,2.19
2022-08-12T08:22:10.719Z,2.14
2022-08-12T08:23:56.195Z,2.14
2022-08-12T08:25:37.455Z,2.12
2022-08-12T08:27:09.819Z,1.98
2022-08-12T08:28:41.986Z,2.15
2022-08-12T08:30:14.182Z,1.90
2022-08-12T08:31:46.098Z,2.12
2022-08-12T08:33:23.797Z,2.18
2022-08-12T08:35:46.109Z,1.95
2022-08-12T08:37:19.186Z,1.72
2022-08-12T08:38:58.218Z,1.61
2022-08-12T08:40:30.593Z,1.66
2022-08-12T08:42:17.225Z,1.84
2022-08-12T08:43:51.617Z,1.73
2022-08-12T08:45:30.207Z,1.72
2022-08-12T08:47:07.068Z,1.64
2022-08-12T08:48:38.898Z,1.83
2022-08-12T08:50:10.505Z,1.82
2022-08-12T08:51:42.638Z,1.68
2022-08-12T08:53:14.386Z,1.58
2022-08-12T08:54:46.170Z,1.77
2022-08-12T08:56:18.290Z,1.81
2022-08-12T08:57:50.045Z,1.93
2022-08-12T08:59:21.777Z,1.67
2022-08-12T09:00:53.669Z,1.57
2022-08-12T09:30:18.186Z,2.04
2022-08-12T09:32:56.517Z,2.28
2022-08-12T09:34:42.212Z,2.22
2022-08-12T09:36:30.630Z,1.89
2022-08-12T09:38:03.236Z,1.94
2022-08-12T09:40:08.099Z,1.91
2022-08-12T09:42:39.607Z,1.99
2022-08-12T09:44:38.121Z,2.32
2022-08-12T09:46:22.314Z,2.10
2022-08-12T09:48:00.018Z,2.16
2022-08-12T09:49:32.190Z,2.06
2022-08-12T09:51:17.070Z,2.06
2022-08-12T09:52:56.496Z,1.84
2022-08-12T09:54:34.281Z,1.73
2022-08-12T09:57:00.985Z,1.48
2022-08-12T09:58:56.620Z,1.67
2022-08-12T10:00:43.170Z,1.69
2022-08-12T10:02:52.744Z,1.54
2022-08-12T10:04:25.410Z,1.51
2022-08-12T10:06:27.386Z,1.59
2022-08-12T10:08:04.262Z,1.54
2022-08-12T10:09:57.218Z,1.45
2022-08-12T10:12:10.101Z,1.62
2022-08-12T10:13:43.210Z,1.68
2022-08-12T10:16:01.581Z,1.75
2022-08-12T10:17:36.993Z,1.62
2022-08-12T10:19:38.785Z,1.77
2022-08-12T10:21:12.511Z,1.67
2022-08-12T10:22:44.336Z,1.70
2022-08-12T10:24:26.506Z,1.72
2022-08-12T10:26:18.551Z,1.66
2022-08-12T10:28:22.024Z,1.72
2022-08-12T10:30:03.017Z,1.63
2022-08-12T10:32:21.142Z,1.66
2022-08-12T10:34:23.576Z,1.73
2022-08-12T10:35:58.331Z,1.76
2022-08-12T10:38:34.339Z,1.85
2022-08-12T10:40:15.644Z,1.82
2022-08-12T10:41:58.612Z,1.67
2022-08-12T10:43:55.685Z,1.58
2022-08-12T10:45:30.421Z,1.83
2022-08-12T10:47:03.265Z,1.63
2022-08-12T10:49:05.373Z,1.70
2022-08-12T10:52:03.421Z,1.80
2022-08-12T10:54:05.493Z,1.82
2022-08-12T10:55:38.536Z,1.79
2022-08-12T10:57:18.386Z,1.64
2022-08-12T11:00:31.892Z,1.54
2022-08-12T11:04:27.160Z,1.48
2022-08-12T11:07:05.538Z,1.57
2022-08-12T11:10:05.084Z,1.77
2022-08-12T11:12:35.804Z,1.76
2022-08-12T11:14:49.828Z,1.69
2022-08-12T11:16:27.856Z,1.45
2022-08-12T11:18:06.566Z,1.52
2022-08-12T11:19:44.399Z,1.62
2022-08-12T11:21:16.207Z,1.43
2022-08-12T11:22:49.406Z,1.52
2022-08-12T11:24:30.303Z,1.36
2022-08-12T11:26:09.145Z,1.51
2022-08-12T11:27:45.758Z,1.51
2022-08-12T11:29:28.021Z,1.35
2022-08-12T11:31:40.765Z,1.39
2022-08-12T11:34:06.569Z,1.43
2022-08-12T11:36:24.013Z,1.42
2022-08-12T11:37:59.142Z,1.44
2022-08-12T11:41:38.542Z,1.45
2022-08-12T11:43:19.019Z,1.51
2022-08-12T11:44:52.259Z,1.39
2022-08-12T11:46:24.218Z,1.39
2022-08-12T11:47:55.931Z,1.62
2022-08-12T11:49:32.423Z,1.43
2022-08-12T11:51:10.285Z,1.38
2022-08-12T11:52:56.274Z,1.40
2022-08-12T11:54:29.608Z,1.26
2022-08-12T11:56:01.932Z,1.15
2022-08-12T11:58:18.397Z,1.40
2022-08-12T12:02:26.700Z,1.23
2022-08-12T12:04:03.448Z,1.23
2022-08-12T12:05:41.539Z,1.35
2022-08-12T12:07:17.552Z,1.20
2022-08-12T12:08:52.875Z,1.25
2022-08-12T12:10:26.285Z,1.27
2022-08-12T12:12:08.684Z,1.11
2022-08-12T12:14:06.545Z,1.40
2022-08-12T12:15:45.757Z,1.20
2022-08-12T12:17:19.189Z,1.24
2022-08-12T12:18:51.152Z,1.33
2022-08-12T12:20:30.504Z,1.12
2022-08-12T12:22:02.508Z,1.23
2022-08-12T12:23:39.252Z,1.33
2022-08-12T12:25:19.715Z,1.30
2022-08-12T12:27:00.426Z,1.29
2022-08-12T12:28:37.875Z,1.35
2022-08-12T12:30:18.701Z,1.32
2022-08-12T12:32:09.997Z,1.25
2022-08-12T12:33:46.274Z,1.41
2022-08-12T12:36:18.299Z,1.21
2022-08-12T12:38:05.162Z,1.30
2022-08-12T12:39:55.542Z,1.16
2022-08-12T12:42:41.474Z,1.30
2022-08-12T12:44:26.078Z,1.34
2022-08-12T12:46:10.425Z,1.39
2022-08-12T12:47:43.280Z,1.32
2022-08-12T12:49:26.092Z,1.39
2022-08-12T12:50:59.514Z,1.27
2022-08-12T12:52:31.302Z,1.23
2022-08-12T12:54:08.683Z,1.26
2022-08-12T12:55:41.563Z,1.20
2022-08-12T12:57:13.649Z,1.16
2022-08-12T12:58:45.640Z,1.50
2022-08-12T13:00:17.530Z,1.21
2022-08-12T13:01:50.281Z,1.31
2022-08-12T13:03:27.315Z,1.37
2022-08-12T13:05:13.785Z,1.24
2022-08-12T13:06:46.217Z,1.15
2022-08-12T13:08:18.656Z,1.28
2022-08-12T13:10:02.073Z,1.40
2022-08-12T13:11:42.200Z,1.25
2022-08-12T13:14:09.148Z,1.18
2022-08-12T13:15:45.563Z,1.29
2022-08-12T13:17:19.943Z,1.26
2022-08-12T13:18:51.760Z,1.34
2022-08-12T13:20:38.137Z,1.19
2022-08-12T13:22:15.030Z,1.33
2022-08-12T13:23:49.896Z,1.32
2022-08-12T13:25:21.887Z,1.31
2022-08-12T13:26:55.491Z,1.36
2022-08-12T13:28:53.394Z,1.27
2022-08-12T13:30:28.746Z,1.29
2022-08-12T13:32:19.297Z,1.30
2022-08-12T13:34:32.087Z,1.35
2022-08-12T13:36:10.163Z,1.28
2022-08-12T13:37:55.248Z,1.44
2022-08-12T13:40:05.465Z,1.20
2022-08-12T13:41:41.807Z,1.31
2022-08-12T13:43:13.840Z,1.25
2022-08-12T13:45:11.342Z,1.35
2022-08-12T13:46:58.592Z,1.18
2022-08-12T13:48:32.445Z,1.43
2022-08-12T13:50:05.825Z,1.53
2022-08-12T13:51:41.563Z,1.57
2022-08-12T13:53:26.184Z,1.26
2022-08-12T13:55:19.314Z,1.57
2022-08-12T13:56:53.018Z,1.27
2022-08-12T13:58:25.619Z,1.27
2022-08-12T14:00:03.552Z,1.35
2022-08-12T14:01:35.501Z,1.36
2022-08-12T14:03:12.799Z,1.48
2022-08-12T14:04:44.628Z,1.49
2022-08-12T14:06:17.009Z,1.45
2022-08-12T14:07:49.303Z,1.64
2022-08-12T14:09:21.521Z,1.28
2022-08-12T14:10:53.973Z,1.44
2022-08-12T14:12:27.409Z,1.20
2022-08-12T14:14:04.151Z,1.53
2022-08-12T14:15:43.518Z,1.36
2022-08-12T14:17:25.264Z,1.17
2022-08-12T14:18:57.803Z,1.21
2022-08-12T14:20:29.730Z,1.25
2022-08-12T14:22:04.883Z,1.58
2022-08-12T14:24:04.879Z,1.37
2022-08-12T14:25:40.820Z,1.31
2022-08-12T14:27:14.510Z,1.41
2022-08-12T14:29:38.115Z,1.39
2022-08-12T14:31:40.629Z,1.32
2022-08-12T14:33:15.220Z,1.27
2022-08-12T14:34:49.614Z,1.37
2022-08-12T14:36:26.858Z,1.57
2022-08-12T14:37:59.235Z,1.32
2022-08-12T14:39:31.606Z,1.16
2022-08-12T14:41:03.778Z,1.46
2022-08-12T14:42:42.575Z,1.45
2022-08-12T14:44:59.619Z,1.41
2022-08-12T14:46:33.388Z,1.29
2022-08-12T14:48:05.731Z,1.36
2022-08-12T14:50:33.718Z,1.27
2022-08-12T14:53:45.798Z,1.22
2022-08-12T14:58:31.779Z,1.27
2022-08-12T15:00:04.264Z,1.20
2022-08-12T15:01:41.336Z,1.34
2022-08-12T15:03:13.460Z,1.29
2022-08-12T15:04:47.248Z,1.46
2022-08-12T15:06:39.814Z,1.46
2022-08-12T15:08:22.846Z,1.34
2022-08-12T15:10:00.027Z,1.31
2022-08-12T15:11:55.802Z,1.33
2022-08-12T15:13:35.854Z,1.20
2022-08-12T15:15:11.925Z,1.15
2022-08-12T15:16:44.011Z,1.10
2022-08-12T15:18:20.934Z,1.20
2022-08-12T15:20:28.304Z,1.20
2022-08-12T15:22:35.276Z,1.35
2022-08-12T15:24:09.055Z,1.34
2022-08-12T15:25:47.419Z,1.29
2022-08-12T15:27:22.538Z,1.42
2022-08-12T15:29:10.446Z,1.46
2022-08-12T15:30:43.584Z,1.20
2022-08-12T15:32:17.057Z,1.42
2022-08-12T15:34:04.140Z,1.46
2022-08-12T15:35:38.450Z,1.19
2022-08-12T15:37:30.266Z,1.51
2022-08-12T15:40:00.927Z,1.31
2022-08-12T15:41:49.135Z,1.20
2022-08-12T15:43:35.419Z,1.21
2022-08-12T15:45:52.839Z,1.25
2022-08-12T15:47:27.337Z,1.16
2022-08-12T15:49:21.988Z,1.27
2022-08-12T15:50:55.116Z,1.33
2022-08-12T15:52:28.096Z,1.21
2022-08-12T15:54:00.613Z,1.41
2022-08-12T15:55:33.758Z,1.40
2022-08-12T15:57:07.957Z,1.25
2022-08-12T15:58:42.129Z,1.08
2022-08-12T16:00:31.859Z,1.45
2022-08-12T16:02:10.051Z,1.34
2022-08-12T16:03:59.252Z,1.30
2022-08-12T16:06:15.639Z,1.46
2022-08-12T16:07:51.739Z,1.26
2022-08-12T16:09:31.787Z,1.21
2022-08-12T16:11:28.963Z,1.34
2022-08-12T16:13:13.808Z,1.14
2022-08-12T16:14:46.826Z,1.33
2022-08-12T16:16:23.998Z,1.08
2022-08-12T16:18:15.319Z,1.22
2022-08-12T16:20:04.132Z,1.21
2022-08-12T16:21:52.164Z,1.57
2022-08-12T16:23:51.667Z,1.32
2022-08-12T16:25:51.576Z,1.24
2022-08-12T16:27:38.442Z,1.46
2022-08-12T16:29:15.453Z,1.29
2022-08-12T16:30:53.115Z,1.43
2022-08-12T16:32:31.850Z,1.36
2022-08-12T16:34:06.217Z,1.56
2022-08-12T16:35:43.181Z,1.19
2022-08-12T16:37:15.194Z,1.24
2022-08-12T16:38:52.086Z,1.38
2022-08-12T16:40:24.512Z,1.52
2022-08-12T16:42:05.274Z,1.39
2022-08-12T16:43:37.706Z,1.47
2022-08-12T16:45:14.815Z,1.55
2022-08-12T16:46:57.999Z,1.31
2022-08-12T16:48:36.132Z,1.31
2022-08-12T16:50:08.221Z,1.39
2022-08-12T16:51:47.521Z,1.39
2022-08-12T16:53:19.463Z,1.46
2022-08-12T16:55:03.685Z,1.40
2022-08-12T16:56:37.190Z,1.46
2022-08-12T16:58:28.524Z,1.46
2022-08-12T17:00:02.724Z,1.51
2022-08-12T17:01:34.774Z,1.45
2022-08-12T17:03:09.158Z,1.45
2022-08-12T17:04:41.536Z,1.41
2022-08-12T17:06:27.744Z,1.44
2022-08-12T17:08:00.124Z,1.45
2022-08-12T17:09:39.659Z,1.43
2022-08-12T17:11:12.317Z,1.47
2022-08-12T17:12:55.682Z,1.55
2022-08-12T17:14:30.611Z,1.55
2022-08-12T17:16:14.445Z,1.39
2022-08-12T17:17:50.325Z,1.67
2022-08-12T17:20:35.018Z,1.52
2022-08-12T17:22:09.864Z,1.30
2022-08-12T17:23:48.689Z,1.26
2022-08-12T17:25:25.875Z,1.42
2022-08-12T17:27:02.767Z,1.33
2022-08-12T17:28:41.379Z,1.39
2022-08-12T17:30:13.980Z,1.51
2022-08-12T17:32:01.265Z,1.42
2022-08-12T17:33:34.710Z,1.53
2022-08-12T17:35:07.968Z,1.60
2022-08-12T17:36:43.226Z,1.52
2022-08-12T17:38:15.552Z,1.84
2022-08-12T17:40:15.728Z,1.64
2022-08-12T17:41:56.448Z,1.35
2022-08-12T17:43:54.902Z,1.56
2022-08-12T17:45:30.780Z,1.46
2022-08-12T17:47:02.723Z,1.47
2022-08-12T17:48:38.375Z,1.36
2022-08-12T17:50:12.911Z,1.28
2022-08-12T17:51:50.307Z,1.37
2022-08-12T17:53:22.906Z,1.64
2022-08-12T17:54:54.595Z,1.48
2022-08-12T17:56:27.442Z,1.33
2022-08-12T17:58:03.932Z,1.48
2022-08-12T17:59:48.060Z,1.48
2022-08-12T18:01:21.049Z,1.29
2022-08-12T18:02:59.023Z,1.37
2022-08-12T18:04:35.871Z,1.37
2022-08-12T18:06:14.536Z,1.41
2022-08-12T18:07:47.453Z,1.35
2022-08-12T18:09:32.211Z,1.48
2022-08-12T18:11:11.779Z,1.37
2022-08-12T18:12:53.546Z,1.44
2022-08-12T18:14:28.035Z,1.31
2022-08-12T18:16:03.907Z,1.58
2022-08-12T18:17:39.072Z,1.50
2022-08-12T18:19:11.385Z,1.38
2022-08-12T18:20:45.022Z,1.36
2022-08-12T18:22:17.685Z,1.40
2022-08-12T18:23:54.549Z,1.54
2022-08-12T18:26:14.492Z,1.26
2022-08-12T18:27:49.430Z,1.53
2022-08-12T18:29:47.560Z,1.38
2022-08-12T18:31:20.180Z,1.50
2022-08-12T18:32:59.309Z,1.27
2022-08-12T18:34:35.238Z,1.68
2022-08-12T18:36:07.335Z,1.37
2022-08-12T18:37:45.553Z,1.55
2022-08-12T18:39:19.564Z,1.42
2022-08-12T18:40:52.323Z,1.56
2022-08-12T18:42:24.957Z,1.67
2022-08-12T18:44:00.948Z,1.39
2022-08-12T18:45:47.268Z,1.39
2022-08-12T18:47:46.742Z,1.40
2022-08-12T18:49:28.418Z,1.43
2022-08-12T18:51:02.612Z,1.43
2022-08-12T18:52:42.366Z,1.56
2022-08-12T18:54:21.651Z,2.14
2022-08-12T18:55:57.538Z,1.43
2022-08-12T18:58:05.919Z,1.70
2022-08-12T19:00:02.163Z,1.50
2022-08-12T19:02:19.500Z,1.54
2022-08-12T19:03:54.146Z,1.38
2022-08-12T19:05:52.605Z,1.39
2022-08-12T19:07:49.843Z,1.35
2022-08-12T19:09:38.962Z,1.42
2022-08-12T19:11:11.497Z,1.46
2022-08-12T19:12:57.166Z,1.47
2022-08-12T19:14:29.927Z,1.29
2022-08-12T19:16:01.904Z,1.24
2022-08-12T19:17:47.700Z,1.21
2022-08-12T19:19:41.267Z,1.32
2022-08-12T19:21:17.039Z,1.28
2022-08-12T19:22:59.826Z,1.28
2022-08-12T19:24:38.751Z,1.39
2022-08-12T19:26:18.759Z,1.18
2022-08-12T19:27:58.942Z,1.47
2022-08-12T19:29:30.631Z,1.50
2022-08-12T19:31:12.753Z,1.41
2022-08-12T19:32:46.620Z,1.44
2022-08-12T19:34:47.023Z,1.41
2022-08-12T19:36:56.018Z,1.48
2022-08-12T19:38:32.589Z,1.31
2022-08-12T19:40:10.971Z,1.27
2022-08-12T19:42:01.373Z,1.37
2022-08-12T19:43:59.174Z,1.54
2022-08-12T19:45:49.079Z,1.36
2022-08-12T19:47:25.836Z,1.50
2022-08-12T19:49:02.924Z,1.62
2022-08-12T19:50:36.189Z,1.46
2022-08-12T19:52:07.871Z,1.32
2022-08-12T19:53:57.483Z,1.37
2022-08-12T19:55:30.338Z,1.85
2022-08-12T19:57:10.484Z,1.42
2022-08-12T19:58:42.169Z,1.27
2022-08-12T20:00:20.480Z,1.47
2022-08-12T20:02:03.407Z,1.52
2022-08-12T20:03:38.252Z,1.55
2022-08-12T20:06:03.513Z,1.47
2022-08-12T20:07:42.713Z,1.45
2022-08-12T20:09:16.066Z,1.36
2022-08-12T20:10:51.027Z,1.42
2022-08-12T20:12:31.552Z,1.34
2022-08-12T20:14:09.319Z,1.57
2022-08-12T20:15:45.140Z,1.46
2022-08-12T20:17:17.206Z,1.79
2022-08-12T20:18:57.882Z,1.34
2022-08-12T20:20:29.902Z,1.26
2022-08-12T20:22:07.258Z,1.34
2022-08-12T20:23:59.727Z,1.43
2022-08-12T20:25:52.495Z,1.36
2022-08-12T20:28:05.212Z,1.54
2022-08-12T20:29:42.963Z,1.64
2022-08-12T20:31:18.145Z,1.60
2022-08-12T20:32:57.272Z,1.85
2022-08-12T20:34:29.177Z,1.67
2022-08-12T20:36:40.712Z,1.60
2022-08-12T20:38:26.423Z,1.83
2022-08-12T20:40:04.357Z,2.03
2022-08-12T20:41:37.117Z,2.06
2022-08-12T20:43:08.867Z,2.30
2022-08-12T20:44:51.265Z,2.49
2022-08-12T20:46:23.963Z,2.56
2022-08-12T20:48:04.381Z,2.58
2022-08-12T20:49:36.366Z,2.79
2022-08-12T20:51:18.954Z,2.70
2022-08-12T20:52:51.198Z,2.66
2022-08-12T20:54:32.701Z,2.74
2022-08-12T20:56:10.329Z,2.72
2022-08-12T20:58:02.115Z,2.82
2022-08-12T20:59:36.441Z,2.64
2022-08-12T21:01:25.902Z,2.52
2022-08-12T21:03:01.327Z,2.73
2022-08-12T21:04:43.894Z,2.45
2022-08-12T21:06:15.782Z,3.09
2022-08-12T21:07:52.291Z,3.44
2022-08-12T21:09:24.444Z,2.49
2022-08-12T21:10:59.195Z,2.43
2022-08-12T21:12:34.321Z,2.41
2022-08-12T21:14:10.444Z,1.87
2022-08-12T21:15:54.577Z,1.71
2022-08-12T21:18:09.669Z,1.74
2022-08-12T21:19:58.757Z,1.88
2022-08-12T21:21:49.972Z,1.88
2022-08-12T21:23:22.983Z,1.82
2022-08-12T21:25:00.011Z,1.92
2022-08-12T21:26:32.200Z,2.02
2022-08-12T21:28:04.064Z,1.88
2022-08-12T21:29:40.094Z,1.66
2022-08-12T21:32:38.077Z,1.63
2022-08-12T21:34:12.308Z,1.59
2022-08-12T21:35:44.142Z,1.73
2022-08-12T21:37:27.283Z,1.56
2022-08-12T21:39:00.698Z,1.75
2022-08-12T21:40:37.014Z,1.78
2022-08-12T21:42:09.066Z,1.67
2022-08-12T21:43:45.077Z,2.02
2022-08-12T21:45:46.510Z,2.06
2022-08-12T21:47:31.961Z,1.68
2022-08-12T21:49:17.001Z,1.77
2022-08-12T21:51:26.665Z,1.71
2022-08-12T21:53:23.032Z,1.83
2022-08-12T21:55:38.687Z,1.82
2022-08-12T21:57:10.936Z,1.94
2022-08-12T21:58:44.851Z,1.88
2022-08-12T22:00:17.683Z,1.82
2022-08-12T22:01:50.012Z,1.61
2022-08-12T22:04:04.168Z,1.58
2022-08-12T22:05:49.967Z,1.63
2022-08-12T22:07:22.373Z,1.66
2022-08-12T22:08:57.289Z,1.48
2022-08-12T22:10:31.549Z,1.58
2022-08-12T22:12:08.416Z,1.75
2022-08-12T22:14:08.043Z,1.89
2022-08-12T22:15:40.668Z,1.70
2022-08-12T22:17:23.805Z,1.55
2022-08-12T22:18:56.025Z,1.82
2022-08-12T22:20:29.787Z,1.59
2022-08-12T22:22:07.944Z,1.64
2022-08-12T22:23:51.992Z,1.67
2022-08-12T22:25:40.071Z,1.68
2022-08-12T22:27:31.254Z,1.65
2022-08-12T22:29:04.677Z,1.52
2022-08-12T22:30:36.495Z,1.43
2022-08-12T22:32:11.546Z,1.40
2022-08-12T22:33:53.898Z,1.45
2022-08-12T22:35:55.728Z,1.28
2022-08-12T22:37:31.216Z,1.28
2022-08-12T22:39:05.063Z,1.39
2022-08-12T22:40:37.561Z,1.25
2022-08-12T22:42:09.420Z,1.71
2022-08-12T22:44:00.686Z,1.27
2022-08-12T22:45:48.627Z,1.22
2022-08-12T22:47:54.455Z,1.34
2022-08-12T22:49:44.788Z,1.07
2022-08-12T22:51:25.094Z,1.35